Time;durP1;ratioP1;P1;durP2;ratioP2;P2;SDS_P1;SDS_P2;PMS_P1;PMS_P2;Temp;Humidity;BMP_temperature;BMP_pressure;BME280_temperature;BME280_humidity;BME280_pressure;Samples;Min_cycle;Max_cycle;Signal;HPM_P1;HPM_P2
2023/01/28 00:02:26;;;;;;;7.88;7.25;;;;;;;;;;5135068;28;20237;-66
2023/01/28 00:04:54;;;;;;;8.13;7.43;;;;;;;;;;5134351;28;20223;-66
2023/01/28 00:07:21;;;;;;;7.82;7.13;;;;;;;;;;5134223;28;20189;-66
2023/01/28 00:09:48;;;;;;;8.27;7.57;;;;;;;;;;5130015;27;20202;-66
2023/01/28 00:12:15;;;;;;;7.70;7.10;;;;;;;;;;5114741;28;20196;-66
2023/01/28 00:14:45;;;;;;;8.77;7.63;;;;;;;;;;5114064;28;20208;-66
2023/01/28 00:17:14;;;;;;;8.82;7.35;;;;;;;;;;5113579;28;20657;-66
2023/01/28 00:19:41;;;;;;;8.73;7.93;;;;;;;;;;5113824;28;20663;-66
2023/01/28 00:22:08;;;;;;;9.32;8.52;;;;;;;;;;5113904;28;20539;-66
2023/01/28 00:24:35;;;;;;;9.70;8.60;;;;;;;;;;5113742;28;20571;-66
2023/01/28 00:27:02;;;;;;;9.10;8.30;;;;;;;;;;5113822;28;20219;-66
2023/01/28 00:29:29;;;;;;;8.57;7.88;;;;;;;;;;5114183;28;20211;-66
2023/01/28 00:31:57;;;;;;;9.23;8.32;;;;;;;;;;5113922;28;20198;-66
2023/01/28 00:34:25;;;;;;;9.45;8.07;;;;;;;;;;5113624;28;20189;-66
2023/01/28 00:36:56;;;;;;;9.88;7.65;;;;;;;;;;5113745;28;20199;-66
2023/01/28 00:39:24;;;;;;;10.57;8.35;;;;;;;;;;5114389;28;20549;-66
2023/01/28 00:41:51;;;;;;;7.45;6.82;;;;;;;;;;5113390;28;20217;-66
2023/01/28 00:44:18;;;;;;;7.97;7.18;;;;;;;;;;5113544;28;20217;-66
2023/01/28 00:46:45;;;;;;;8.15;7.55;;;;;;;;;;5113526;28;20226;-66
2023/01/28 00:49:12;;;;;;;8.68;7.88;;;;;;;;;;5113941;28;20195;-66
2023/01/28 00:51:41;;;;;;;9.20;8.40;;;;;;;;;;5116575;28;20556;-66
2023/01/28 00:54:08;;;;;;;10.45;8.55;;;;;;;;;;5117585;28;20189;-66
2023/01/28 00:56:36;;;;;;;9.90;9.05;;;;;;;;;;5116929;28;20233;-66
2023/01/28 00:59:03;;;;;;;9.30;8.40;;;;;;;;;;5117593;28;20238;-66
2023/01/28 01:01:31;;;;;;;12.55;8.95;;;;;;;;;;5118870;27;20190;-67
2023/01/28 01:04:01;;;;;;;9.43;8.63;;;;;;;;;;5117311;28;20285;-66
2023/01/28 01:06:28;;;;;;;10.82;9.50;;;;;;;;;;5116821;28;20749;-66
2023/01/28 01:08:57;;;;;;;9.45;8.43;;;;;;;;;;5118653;27;20647;-66
2023/01/28 01:11:24;;;;;;;10.02;9.13;;;;;;;;;;5117152;28;20195;-66
2023/01/28 01:13:53;;;;;;;11.18;10.07;;;;;;;;;;5117070;28;20194;-66
2023/01/28 01:16:21;;;;;;;10.07;8.85;;;;;;;;;;5117060;28;20652;-66
2023/01/28 01:18:48;;;;;;;9.18;7.63;;;;;;;;;;5116962;28;20193;-66
2023/01/28 01:21:16;;;;;;;9.32;8.32;;;;;;;;;;5116692;28;20198;-66
2023/01/28 01:23:43;;;;;;;7.43;6.82;;;;;;;;;;5116899;28;20205;-66
2023/01/28 01:26:12;;;;;;;6.97;6.38;;;;;;;;;;5116519;28;20222;-66
2023/01/28 01:28:39;;;;;;;7.72;7.07;;;;;;;;;;5116437;28;20216;-67
2023/01/28 01:31:07;;;;;;;9.32;8.32;;;;;;;;;;5116636;28;20218;-66
2023/01/28 01:33:35;;;;;;;7.82;7.18;;;;;;;;;;5116667;28;20193;-66
2023/01/28 01:36:02;;;;;;;6.90;6.35;;;;;;;;;;5116472;28;20563;-66
2023/01/28 01:38:30;;;;;;;6.05;5.55;;;;;;;;;;5116548;28;20718;-66
2023/01/28 01:40:58;;;;;;;7.47;6.88;;;;;;;;;;5116446;28;20198;-66
2023/01/28 01:43:27;;;;;;;8.90;6.97;;;;;;;;;;5116155;28;20193;-67
2023/01/28 01:45:56;;;;;;;7.00;6.32;;;;;;;;;;5116565;28;20218;-65
2023/01/28 01:48:25;;;;;;;10.63;7.45;;;;;;;;;;5116443;28;20536;-66
2023/01/28 01:50:55;;;;;;;8.38;7.57;;;;;;;;;;5116238;28;20563;-66
2023/01/28 01:53:24;;;;;;;7.68;6.97;;;;;;;;;;5115935;28;20663;-66
2023/01/28 01:55:52;;;;;;;7.20;6.50;;;;;;;;;;5116468;28;20203;-66
2023/01/28 01:58:22;;;;;;;6.85;6.25;;;;;;;;;;5115909;28;20227;-66
2023/01/28 02:00:50;;;;;;;6.90;6.30;;;;;;;;;;5115999;28;20205;-66
2023/01/28 02:03:20;;;;;;;7.53;6.80;;;;;;;;;;5117662;27;20257;-66
2023/01/28 02:05:47;;;;;;;9.30;7.40;;;;;;;;;;5115889;28;20558;-66
2023/01/28 02:08:24;;;;;;;7.75;6.95;;;;;;;;;;5116786;27;20193;-67
2023/01/28 02:10:53;;;;;;;8.38;6.57;;;;;;;;;;5117151;27;20608;-66
2023/01/28 02:13:21;;;;;;;7.15;6.40;;;;;;;;;;5115835;28;20193;-66
2023/01/28 02:15:49;;;;;;;6.10;5.60;;;;;;;;;;5115924;28;20199;-66
2023/01/28 02:18:18;;;;;;;7.10;6.25;;;;;;;;;;5115754;28;20194;-66
2023/01/28 02:20:57;;;;;;;7.70;6.70;;;;;;;;;;5116258;28;20206;-66
2023/01/28 02:23:39;;;;;;;7.22;6.53;;;;;;;;;;5116111;28;20206;-67
2023/01/28 02:26:18;;;;;;;8.23;7.43;;;;;;;;;;5115231;28;20217;-66
2023/01/28 02:28:48;;;;;;;7.03;6.53;;;;;;;;;;5115694;28;20184;-66
2023/01/28 02:31:16;;;;;;;6.78;6.18;;;;;;;;;;5115422;28;20550;-66
2023/01/28 02:33:45;;;;;;;6.82;6.28;;;;;;;;;;5115510;28;20196;-66
2023/01/28 02:36:17;;;;;;;8.35;7.50;;;;;;;;;;5115336;28;20220;-66
2023/01/28 02:38:47;;;;;;;6.70;6.00;;;;;;;;;;5115125;28;20196;-66
2023/01/28 02:41:19;;;;;;;7.80;6.90;;;;;;;;;;5115340;28;20302;-66
2023/01/28 02:43:47;;;;;;;8.88;7.10;;;;;;;;;;5114990;28;20193;-66
2023/01/28 02:49:05;;;;;;;10.63;6.60;;;;;;;;;;5115312;28;20556;-66
2023/01/28 02:51:37;;;;;;;6.93;6.43;;;;;;;;;;5114981;28;20199;-66
2023/01/28 02:54:08;;;;;;;7.38;6.57;;;;;;;;;;5115450;28;20190;-66
2023/01/28 02:56:38;;;;;;;8.30;7.40;;;;;;;;;;5115426;28;20230;-66
2023/01/28 03:01:57;;;;;;;8.25;6.72;;;;;;;;;;5115433;27;20190;-66
2023/01/28 03:04:26;;;;;;;6.40;5.90;;;;;;;;;;5115770;28;20192;-66
2023/01/28 03:06:55;;;;;;;7.03;6.50;;;;;;;;;;5115038;28;20215;-66
2023/01/28 03:09:22;;;;;;;6.80;6.30;;;;;;;;;;5116617;27;20192;-66
2023/01/28 03:36:50;;;;;;;9.45;8.75;;;;;;;;;;5114368;28;20574;-66
2023/01/28 03:39:18;;;;;;;7.10;6.35;;;;;;;;;;5114497;28;20278;-66
2023/01/28 03:41:56;;;;;;;6.57;6.18;;;;;;;;;;5114184;28;20216;-66
2023/01/28 03:47:10;;;;;;;10.93;7.85;;;;;;;;;;5114119;28;20210;-66
2023/01/28 03:49:38;;;;;;;7.88;7.28;;;;;;;;;;5113861;28;20194;-66
2023/01/28 03:52:05;;;;;;;8.10;7.30;;;;;;;;;;5113706;28;20290;-66
2023/01/28 03:54:33;;;;;;;8.45;7.63;;;;;;;;;;5113789;28;20204;-66
2023/01/28 03:57:00;;;;;;;6.82;6.30;;;;;;;;;;5113801;28;20229;-66
2023/01/28 03:59:27;;;;;;;7.00;6.40;;;;;;;;;;5113953;28;20202;-66
2023/01/28 04:01:54;;;;;;;9.90;7.65;;;;;;;;;;5116189;28;20189;-66
2023/01/28 04:04:23;;;;;;;8.40;7.70;;;;;;;;;;5113749;28;20205;-66
2023/01/28 04:06:51;;;;;;;8.50;7.80;;;;;;;;;;5113848;28;20531;-67
2023/01/28 04:09:18;;;;;;;7.55;6.95;;;;;;;;;;5116176;27;20191;-66
2023/01/28 04:11:45;;;;;;;7.88;7.28;;;;;;;;;;5113614;28;20201;-67
2023/01/28 04:14:14;;;;;;;7.35;6.75;;;;;;;;;;5113827;28;20220;-66
2023/01/28 04:16:41;;;;;;;9.38;7.00;;;;;;;;;;5114251;28;20194;-66
2023/01/28 04:19:08;;;;;;;7.50;7.00;;;;;;;;;;5113825;28;20600;-66
2023/01/28 04:21:37;;;;;;;11.52;7.30;;;;;;;;;;5113856;28;20198;-66
2023/01/28 04:24:04;;;;;;;8.18;7.38;;;;;;;;;;5113773;28;20188;-66
2023/01/28 04:26:31;;;;;;;7.55;6.95;;;;;;;;;;5117676;28;20228;-66
2023/01/28 04:28:58;;;;;;;7.82;7.10;;;;;;;;;;5117811;28;20189;-66
2023/01/28 04:31:26;;;;;;;8.20;7.28;;;;;;;;;;5117894;28;20208;-66
2023/01/28 04:33:53;;;;;;;8.30;7.30;;;;;;;;;;5117734;28;20194;-66
2023/01/28 04:36:20;;;;;;;7.43;6.72;;;;;;;;;;5118009;28;20246;-66
2023/01/28 04:38:48;;;;;;;7.65;7.05;;;;;;;;;;5117352;28;20200;-66
2023/01/28 04:41:16;;;;;;;7.50;6.43;;;;;;;;;;5117357;28;20199;-65
2023/01/28 04:43:43;;;;;;;8.32;5.90;;;;;;;;;;5117592;28;20204;-66
2023/01/28 04:46:10;;;;;;;6.80;5.95;;;;;;;;;;5117505;28;20233;-66
2023/01/28 04:48:37;;;;;;;6.25;5.75;;;;;;;;;;5117463;28;20189;-66
2023/01/28 04:51:05;;;;;;;6.60;5.78;;;;;;;;;;5117505;28;20536;-66
2023/01/28 04:53:32;;;;;;;11.90;6.93;;;;;;;;;;5117637;28;20229;-66
2023/01/28 04:56:01;;;;;;;5.82;5.35;;;;;;;;;;5128490;27;20186;-66
2023/01/28 04:58:28;;;;;;;6.70;6.20;;;;;;;;;;5118541;27;20231;-66
2023/01/28 05:00:56;;;;;;;7.20;6.65;;;;;;;;;;5117430;28;20285;-66
2023/01/28 05:03:23;;;;;;;6.95;6.30;;;;;;;;;;5117361;28;20199;-66
2023/01/28 05:05:51;;;;;;;7.45;6.85;;;;;;;;;;5117240;28;20202;-66
2023/01/28 05:08:18;;;;;;;6.95;6.45;;;;;;;;;;5117271;28;20218;-66
2023/01/28 05:10:45;;;;;;;6.95;6.45;;;;;;;;;;5114392;28;20193;-67
2023/01/28 05:13:14;;;;;;;7.28;6.70;;;;;;;;;;5116821;28;20204;-66
2023/01/28 05:15:41;;;;;;;8.20;7.53;;;;;;;;;;5116927;28;20204;-66
2023/01/28 05:18:08;;;;;;;7.72;6.85;;;;;;;;;;5116468;28;20694;-67
2023/01/28 05:20:35;;;;;;;9.15;7.43;;;;;;;;;;5117203;28;20194;-66
2023/01/28 05:23:03;;;;;;;7.05;6.45;;;;;;;;;;5116691;28;20215;-66
2023/01/28 05:25:30;;;;;;;7.15;6.65;;;;;;;;;;5116879;28;20199;-66
2023/01/28 05:27:57;;;;;;;8.70;7.93;;;;;;;;;;5116306;28;20583;-66
2023/01/28 05:30:26;;;;;;;8.32;7.47;;;;;;;;;;5116671;28;20654;-65
2023/01/28 05:32:56;;;;;;;7.15;6.55;;;;;;;;;;5116333;28;20201;-66
2023/01/28 05:35:23;;;;;;;7.38;6.63;;;;;;;;;;5116203;28;20666;-66
2023/01/28 05:37:50;;;;;;;8.85;6.00;;;;;;;;;;5115520;28;20678;-66
2023/01/28 05:40:17;;;;;;;7.45;6.85;;;;;;;;;;5109923;28;20561;-66
2023/01/28 05:42:45;;;;;;;7.70;7.10;;;;;;;;;;5096143;28;20562;-66
2023/01/28 05:45:12;;;;;;;6.47;5.88;;;;;;;;;;5095581;28;20244;-66
2023/01/28 05:47:41;;;;;;;7.50;6.80;;;;;;;;;;5095977;28;20213;-66
2023/01/28 05:50:08;;;;;;;8.02;6.75;;;;;;;;;;5095419;28;20676;-66
2023/01/28 05:52:36;;;;;;;5.85;5.45;;;;;;;;;;5095495;28;20207;-66
2023/01/28 05:55:03;;;;;;;7.95;6.13;;;;;;;;;;5095748;28;20194;-66
2023/01/28 05:57:31;;;;;;;6.93;6.32;;;;;;;;;;5107015;28;20759;-66
2023/01/28 05:59:58;;;;;;;6.97;6.38;;;;;;;;;;5115902;28;20194;-66
2023/01/28 06:02:25;;;;;;;7.28;6.68;;;;;;;;;;5116363;28;20200;-66
2023/01/28 06:04:54;;;;;;;8.30;6.75;;;;;;;;;;5115565;28;20285;-66
2023/01/28 06:07:22;;;;;;;9.13;6.40;;;;;;;;;;5115596;28;20687;-66
2023/01/28 06:09:50;;;;;;;7.30;6.55;;;;;;;;;;5117154;27;20607;-66
2023/01/28 06:12:17;;;;;;;6.60;6.00;;;;;;;;;;5136470;27;20193;-66
2023/01/28 06:14:44;;;;;;;6.07;5.57;;;;;;;;;;5135933;27;20676;-66
2023/01/28 06:17:11;;;;;;;8.27;7.40;;;;;;;;;;5136299;27;20203;-66
2023/01/28 06:19:38;;;;;;;8.27;5.85;;;;;;;;;;5136236;27;20201;-66
2023/01/28 06:22:07;;;;;;;6.95;6.25;;;;;;;;;;5136242;27;20189;-66
2023/01/28 06:24:34;;;;;;;7.57;6.20;;;;;;;;;;5136010;27;20554;-67
2023/01/28 06:27:01;;;;;;;8.02;6.30;;;;;;;;;;5136172;27;20308;-66
2023/01/28 06:29:29;;;;;;;6.25;5.75;;;;;;;;;;5135649;27;20202;-66
2023/01/28 06:31:56;;;;;;;6.68;6.07;;;;;;;;;;5135907;27;20197;-66
2023/01/28 06:34:23;;;;;;;7.70;6.40;;;;;;;;;;5135816;27;20193;-67
2023/01/28 06:36:52;;;;;;;6.90;6.30;;;;;;;;;;5135877;27;20197;-66
2023/01/28 06:39:21;;;;;;;7.15;6.45;;;;;;;;;;5135482;27;20208;-66
2023/01/28 06:41:48;;;;;;;6.72;6.22;;;;;;;;;;5135267;27;20243;-66
2023/01/28 06:44:16;;;;;;;7.75;6.63;;;;;;;;;;5135291;27;20719;-66
2023/01/28 06:46:43;;;;;;;7.72;6.40;;;;;;;;;;5135395;27;20643;-67
2023/01/28 06:49:10;;;;;;;6.28;5.78;;;;;;;;;;5134758;27;20527;-67
2023/01/28 06:51:37;;;;;;;8.63;7.00;;;;;;;;;;5135582;27;20296;-67
2023/01/28 06:54:04;;;;;;;11.13;7.72;;;;;;;;;;5135238;27;20193;-66
2023/01/28 06:56:33;;;;;;;8.15;7.18;;;;;;;;;;5134986;27;20674;-66
2023/01/28 06:59:01;;;;;;;7.28;6.68;;;;;;;;;;5135384;27;20192;-66
2023/01/28 07:01:28;;;;;;;7.38;6.68;;;;;;;;;;5135591;27;20197;-66
2023/01/28 07:03:56;;;;;;;10.27;8.50;;;;;;;;;;5135276;27;20202;-66
2023/01/28 07:06:23;;;;;;;6.68;6.00;;;;;;;;;;5135437;27;20194;-66
2023/01/28 07:08:51;;;;;;;7.07;6.47;;;;;;;;;;5135388;27;20303;-66
2023/01/28 07:11:18;;;;;;;7.50;6.80;;;;;;;;;;5134754;27;20196;-66
2023/01/28 07:13:47;;;;;;;7.80;7.00;;;;;;;;;;5134817;27;20234;-66
2023/01/28 07:16:14;;;;;;;15.57;6.20;;;;;;;;;;5134687;27;20249;-65
2023/01/28 07:18:41;;;;;;;7.07;6.47;;;;;;;;;;5135114;27;20223;-65
2023/01/28 07:21:09;;;;;;;7.07;6.38;;;;;;;;;;5135094;27;20191;-66
2023/01/28 07:23:36;;;;;;;8.50;7.70;;;;;;;;;;5135044;27;20195;-65
2023/01/28 07:26:03;;;;;;;8.20;6.07;;;;;;;;;;5134766;27;20564;-64
2023/01/28 07:28:31;;;;;;;7.53;6.72;;;;;;;;;;5134365;27;20293;-65
2023/01/28 07:30:59;;;;;;;7.32;6.72;;;;;;;;;;5134457;27;20193;-65
2023/01/28 07:33:26;;;;;;;7.18;6.60;;;;;;;;;;5134980;27;20609;-65
2023/01/28 07:35:54;;;;;;;7.68;6.97;;;;;;;;;;5134640;27;20193;-65
2023/01/28 07:38:21;;;;;;;8.25;7.55;;;;;;;;;;5134809;27;20353;-65
2023/01/28 07:40:49;;;;;;;8.95;6.72;;;;;;;;;;5134524;27;20553;-65
2023/01/28 07:43:16;;;;;;;7.80;7.00;;;;;;;;;;5134726;27;20536;-65
2023/01/28 07:45:43;;;;;;;7.72;7.07;;;;;;;;;;5134802;27;20545;-65
2023/01/28 07:48:12;;;;;;;8.52;6.38;;;;;;;;;;5134693;27;20213;-65
2023/01/28 07:50:40;;;;;;;7.53;6.80;;;;;;;;;;5133850;27;20253;-65
2023/01/28 07:53:07;;;;;;;8.57;7.05;;;;;;;;;;5124844;27;20209;-65
2023/01/28 07:55:35;;;;;;;7.15;6.53;;;;;;;;;;5113224;28;20200;-65
2023/01/28 07:58:03;;;;;;;9.10;8.18;;;;;;;;;;5112832;28;20228;-65
2023/01/28 08:00:31;;;;;;;7.47;6.82;;;;;;;;;;5113248;28;20202;-65
2023/01/28 08:02:59;;;;;;;7.75;7.03;;;;;;;;;;5113729;28;20193;-65
2023/01/28 08:05:30;;;;;;;8.00;7.30;;;;;;;;;;5113456;28;20193;-65
2023/01/28 08:07:58;;;;;;;10.93;7.22;;;;;;;;;;5113721;28;20213;-65
2023/01/28 08:10:26;;;;;;;8.43;6.95;;;;;;;;;;5121089;28;20191;-65
2023/01/28 08:12:53;;;;;;;8.27;7.28;;;;;;;;;;5134022;28;20201;-65
2023/01/28 08:15:21;;;;;;;10.40;9.40;;;;;;;;;;5134283;28;20280;-65
2023/01/28 08:17:48;;;;;;;7.35;6.70;;;;;;;;;;5134108;28;20723;-65
2023/01/28 08:20:15;;;;;;;7.78;6.80;;;;;;;;;;5134323;28;20598;-65
2023/01/28 08:22:44;;;;;;;6.72;6.10;;;;;;;;;;5133993;28;20228;-65
2023/01/28 08:25:11;;;;;;;8.35;7.55;;;;;;;;;;5133894;28;20192;-65
2023/01/28 08:27:38;;;;;;;7.57;6.93;;;;;;;;;;5134093;28;20305;-65
2023/01/28 08:30:06;;;;;;;9.35;7.20;;;;;;;;;;5134225;28;20201;-64
2023/01/28 08:32:33;;;;;;;10.63;7.57;;;;;;;;;;5134140;28;20190;-65
2023/01/28 08:35:00;;;;;;;9.98;7.05;;;;;;;;;;5133918;28;20208;-65
2023/01/28 08:37:27;;;;;;;7.63;6.93;;;;;;;;;;5133830;28;20704;-65
2023/01/28 08:39:56;;;;;;;7.97;7.28;;;;;;;;;;5133906;28;20189;-64
2023/01/28 08:42:23;;;;;;;10.25;7.65;;;;;;;;;;5133647;28;20200;-65
2023/01/28 08:44:50;;;;;;;7.50;6.70;;;;;;;;;;5133878;28;20196;-65
2023/01/28 08:47:17;;;;;;;10.18;7.28;;;;;;;;;;5133564;28;20200;-65
2023/01/28 08:49:45;;;;;;;7.38;6.63;;;;;;;;;;5133539;28;20198;-65
2023/01/28 08:52:12;;;;;;;13.10;8.43;;;;;;;;;;5133846;28;20200;-65
2023/01/28 08:54:39;;;;;;;9.07;8.18;;;;;;;;;;5133618;28;20192;-65
2023/01/28 08:57:08;;;;;;;8.45;7.65;;;;;;;;;;5133485;28;20637;-64
2023/01/28 08:59:35;;;;;;;10.75;8.32;;;;;;;;;;5133576;28;20263;-64
2023/01/28 09:02:02;;;;;;;9.00;7.63;;;;;;;;;;5133607;28;20193;-65
2023/01/28 09:04:29;;;;;;;9.60;8.70;;;;;;;;;;5133519;28;20614;-65
2023/01/28 09:06:56;;;;;;;10.55;9.52;;;;;;;;;;5133505;28;20661;-65
2023/01/28 09:09:23;;;;;;;12.80;11.02;;;;;;;;;;5133880;28;20226;-65
2023/01/28 09:11:50;;;;;;;11.85;10.65;;;;;;;;;;5134694;27;20190;-64
2023/01/28 09:14:19;;;;;;;9.75;8.85;;;;;;;;;;5137506;27;20194;-66
2023/01/28 09:16:46;;;;;;;13.25;10.00;;;;;;;;;;5137072;27;20662;-65
2023/01/28 09:19:14;;;;;;;20.02;10.43;;;;;;;;;;5137413;27;20201;-64
2023/01/28 09:21:41;;;;;;;11.75;9.77;;;;;;;;;;5136849;27;20196;-65
2023/01/28 09:24:11;;;;;;;13.63;11.07;;;;;;;;;;5137389;27;20228;-65
2023/01/28 09:26:38;;;;;;;13.15;11.57;;;;;;;;;;5137106;27;20549;-65
2023/01/28 09:29:06;;;;;;;13.93;11.77;;;;;;;;;;5137162;27;20209;-65
2023/01/28 09:31:34;;;;;;;14.82;11.98;;;;;;;;;;5137180;27;20281;-65
2023/01/28 09:34:02;;;;;;;17.55;14.02;;;;;;;;;;5136763;27;20189;-65
2023/01/28 09:36:30;;;;;;;16.67;13.65;;;;;;;;;;5137485;27;20196;-66
2023/01/28 09:38:57;;;;;;;17.23;12.57;;;;;;;;;;5137056;27;20287;-64
2023/01/28 09:41:25;;;;;;;16.85;12.93;;;;;;;;;;5136631;27;20285;-64
2023/01/28 09:44:07;;;;;;;17.38;13.73;;;;;;;;;;5136505;27;20199;-65
2023/01/28 09:46:37;;;;;;;17.85;13.00;;;;;;;;;;5136497;27;20676;-65
2023/01/28 09:49:07;;;;;;;15.40;12.85;;;;;;;;;;5136410;27;20209;-66
2023/01/28 09:51:37;;;;;;;17.92;13.82;;;;;;;;;;5136709;27;20193;-65
2023/01/28 09:54:06;;;;;;;15.32;12.07;;;;;;;;;;5136453;27;20192;-65
2023/01/28 09:56:37;;;;;;;14.27;12.73;;;;;;;;;;5136545;27;20220;-65
2023/01/28 09:59:14;;;;;;;17.38;12.90;;;;;;;;;;5134097;27;20189;-65
2023/01/28 10:01:46;;;;;;;16.88;13.00;;;;;;;;;;5135414;27;20178;-66
2023/01/28 10:04:21;;;;;;;16.50;12.57;;;;;;;;;;5136041;27;20184;-66
2023/01/28 10:06:54;;;;;;;19.08;14.20;;;;;;;;;;5136545;27;20186;-65
2023/01/28 10:09:26;;;;;;;17.85;12.95;;;;;;;;;;5136367;27;20245;-65
2023/01/28 10:12:02;;;;;;;17.30;13.85;;;;;;;;;;5135986;27;20191;-66
2023/01/28 10:14:35;;;;;;;14.52;12.88;;;;;;;;;;5136022;27;20233;-65
2023/01/28 10:17:08;;;;;;;14.05;12.38;;;;;;;;;;5136105;27;20192;-65
2023/01/28 10:19:38;;;;;;;16.55;14.20;;;;;;;;;;5136096;27;20673;-65
2023/01/28 10:22:07;;;;;;;17.60;14.25;;;;;;;;;;5135856;27;20201;-65
2023/01/28 10:24:35;;;;;;;19.27;13.65;;;;;;;;;;5136239;27;20195;-65
2023/01/28 10:27:03;;;;;;;15.50;13.77;;;;;;;;;;5136408;27;20532;-65
2023/01/28 10:29:33;;;;;;;18.65;13.90;;;;;;;;;;5136070;27;20224;-66
2023/01/28 10:32:05;;;;;;;22.33;13.77;;;;;;;;;;5136652;27;20193;-66
2023/01/28 10:34:33;;;;;;;16.30;13.48;;;;;;;;;;5136128;27;20182;-65
2023/01/28 10:37:01;;;;;;;21.70;16.05;;;;;;;;;;5136035;27;20224;-65
2023/01/28 10:39:29;;;;;;;18.15;14.68;;;;;;;;;;5135931;27;20197;-65
2023/01/28 10:41:56;;;;;;;24.23;14.48;;;;;;;;;;5136005;27;20248;-65
2023/01/28 10:44:27;;;;;;;17.50;13.05;;;;;;;;;;5135708;27;20196;-65
2023/01/28 10:46:57;;;;;;;18.52;13.93;;;;;;;;;;5135602;27;20182;-65
2023/01/28 10:49:27;;;;;;;21.05;15.02;;;;;;;;;;5135839;27;20206;-66
2023/01/28 10:51:56;;;;;;;19.40;14.18;;;;;;;;;;5135457;27;20196;-64
2023/01/28 10:54:24;;;;;;;18.85;13.55;;;;;;;;;;5135697;27;20195;-65
2023/01/28 10:56:54;;;;;;;24.70;15.68;;;;;;;;;;5135258;27;20253;-64
2023/01/28 10:59:22;;;;;;;23.23;17.73;;;;;;;;;;5135606;27;20194;-66
2023/01/28 11:01:50;;;;;;;22.05;16.27;;;;;;;;;;5135623;27;20552;-66
2023/01/28 11:04:19;;;;;;;25.55;16.70;;;;;;;;;;5135053;27;20193;-65
2023/01/28 11:06:59;;;;;;;22.63;15.20;;;;;;;;;;5135727;27;20222;-67
2023/01/28 11:09:27;;;;;;;24.48;16.67;;;;;;;;;;5135541;27;20615;-67
2023/01/28 11:11:54;;;;;;;24.27;17.05;;;;;;;;;;5135568;27;20216;-67
2023/01/28 11:14:25;;;;;;;20.63;14.55;;;;;;;;;;5135253;27;20279;-67
2023/01/28 11:16:53;;;;;;;22.65;16.40;;;;;;;;;;5135361;27;20557;-65
2023/01/28 11:19:21;;;;;;;26.67;17.92;;;;;;;;;;5135363;27;20204;-66
2023/01/28 11:21:54;;;;;;;24.00;15.82;;;;;;;;;;5135185;27;20204;-66
2023/01/28 11:24:24;;;;;;;21.45;15.45;;;;;;;;;;5135529;27;20198;-67
2023/01/28 11:26:53;;;;;;;20.90;14.80;;;;;;;;;;5135283;27;20193;-65
2023/01/28 11:29:25;;;;;;;21.80;15.60;;;;;;;;;;5134824;27;20222;-66
2023/01/28 11:31:52;;;;;;;23.30;16.33;;;;;;;;;;5134730;27;20658;-67
2023/01/28 11:34:20;;;;;;;23.45;15.13;;;;;;;;;;5134030;27;20645;-65
2023/01/28 11:36:51;;;;;;;19.90;14.75;;;;;;;;;;5134894;27;20191;-65
2023/01/28 11:39:20;;;;;;;17.00;13.80;;;;;;;;;;5134799;27;20194;-65
2023/01/28 11:41:49;;;;;;;20.33;14.90;;;;;;;;;;5134818;27;20287;-65
2023/01/28 11:44:18;;;;;;;20.13;15.55;;;;;;;;;;5134720;27;20203;-65
2023/01/28 11:47:03;;;;;;;22.85;14.80;;;;;;;;;;5135061;27;20191;-66
2023/01/28 11:49:34;;;;;;;18.90;13.93;;;;;;;;;;5134531;27;20591;-67
2023/01/28 11:52:05;;;;;;;20.98;15.32;;;;;;;;;;5135418;27;20183;-64
2023/01/28 11:54:38;;;;;;;20.92;14.95;;;;;;;;;;5134621;27;20191;-66
2023/01/28 11:57:14;;;;;;;22.40;15.45;;;;;;;;;;5134632;27;20228;-66
2023/01/28 11:59:53;;;;;;;21.08;15.25;;;;;;;;;;5134785;27;20198;-66
2023/01/28 12:02:31;;;;;;;23.92;16.25;;;;;;;;;;5134290;27;20192;-64
2023/01/28 12:05:06;;;;;;;20.65;14.70;;;;;;;;;;5133113;27;20668;-64
2023/01/28 12:07:38;;;;;;;17.63;13.77;;;;;;;;;;5134189;28;20189;-65
2023/01/28 12:10:10;;;;;;;20.65;14.10;;;;;;;;;;5134345;28;20218;-65
2023/01/28 12:12:54;;;;;;;19.52;13.75;;;;;;;;;;5134412;28;20183;-67
2023/01/28 12:15:27;;;;;;;20.75;14.18;;;;;;;;;;5134025;28;20545;-67
2023/01/28 12:18:05;;;;;;;20.15;14.25;;;;;;;;;;5134111;28;20178;-64
2023/01/28 12:20:34;;;;;;;19.63;14.02;;;;;;;;;;5133945;28;20182;-65
2023/01/28 12:23:26;;;;;;;20.17;15.00;;;;;;;;;;5133922;28;20644;-64
2023/01/28 12:25:59;;;;;;;19.00;13.23;;;;;;;;;;5109054;28;20308;-65
2023/01/28 12:28:33;;;;;;;22.50;12.95;;;;;;;;;;5133659;28;20682;-65
2023/01/28 12:31:10;;;;;;;20.20;13.40;;;;;;;;;;5133795;28;20187;-65
2023/01/28 12:33:52;;;;;;;20.70;14.45;;;;;;;;;;5133881;28;20243;-65
2023/01/28 12:36:28;;;;;;;18.52;13.50;;;;;;;;;;5113559;28;20183;-65
2023/01/28 12:39:03;;;;;;;16.15;12.20;;;;;;;;;;5113853;28;20233;-66
2023/01/28 12:41:32;;;;;;;15.52;12.70;;;;;;;;;;5113370;28;20184;-65
2023/01/28 12:44:01;;;;;;;18.65;12.02;;;;;;;;;;5113447;28;20200;-66
2023/01/28 12:46:33;;;;;;;21.75;12.30;;;;;;;;;;5114161;28;20187;-67
2023/01/28 12:49:04;;;;;;;17.58;13.30;;;;;;;;;;5117489;28;20256;-65
2023/01/28 12:51:35;;;;;;;17.15;11.60;;;;;;;;;;5117194;28;20623;-65
2023/01/28 12:54:04;;;;;;;18.85;12.70;;;;;;;;;;5117642;28;20219;-65
2023/01/28 12:56:34;;;;;;;16.42;12.88;;;;;;;;;;5116858;28;20219;-65
2023/01/28 12:59:04;;;;;;;17.20;13.13;;;;;;;;;;5117245;28;20282;-65
2023/01/28 13:01:36;;;;;;;17.73;12.80;;;;;;;;;;5117388;28;20273;-65
2023/01/28 13:04:07;;;;;;;18.33;12.80;;;;;;;;;;5119169;27;20210;-65
2023/01/28 13:06:38;;;;;;;17.55;12.32;;;;;;;;;;5137703;27;20222;-65
2023/01/28 13:09:12;;;;;;;17.38;12.70;;;;;;;;;;5137509;27;20298;-65
2023/01/28 13:11:39;;;;;;;18.83;11.73;;;;;;;;;;5137222;27;20187;-65
2023/01/28 13:14:08;;;;;;;18.40;12.13;;;;;;;;;;5137490;27;20286;-66
2023/01/28 13:16:35;;;;;;;16.02;12.50;;;;;;;;;;5137048;27;20200;-65
2023/01/28 13:19:06;;;;;;;17.92;12.63;;;;;;;;;;5137289;27;20203;-66
2023/01/28 13:21:35;;;;;;;16.58;11.77;;;;;;;;;;5137235;27;20182;-65
2023/01/28 13:24:07;;;;;;;18.25;11.88;;;;;;;;;;5137366;27;20190;-65
2023/01/28 13:26:43;;;;;;;20.20;12.18;;;;;;;;;;5137166;27;20194;-65
2023/01/28 13:29:15;;;;;;;17.60;12.63;;;;;;;;;;5137750;27;20210;-66
2023/01/28 13:31:44;;;;;;;15.98;11.52;;;;;;;;;;5137470;27;20271;-65
2023/01/28 13:34:28;;;;;;;20.33;12.50;;;;;;;;;;5137117;27;20608;-65
2023/01/28 13:36:56;;;;;;;15.07;11.18;;;;;;;;;;5136971;27;20187;-65
2023/01/28 13:39:24;;;;;;;22.55;13.70;;;;;;;;;;5136810;27;20191;-65
2023/01/28 13:41:53;;;;;;;15.82;12.18;;;;;;;;;;5137006;27;20279;-65
2023/01/28 13:44:21;;;;;;;15.65;11.43;;;;;;;;;;5136649;27;20194;-65
2023/01/28 13:46:50;;;;;;;17.35;12.70;;;;;;;;;;5136832;27;20190;-65
2023/01/28 13:49:19;;;;;;;19.40;12.00;;;;;;;;;;5137067;27;20221;-65
2023/01/28 13:51:53;;;;;;;16.05;11.65;;;;;;;;;;5136807;27;20223;-65
2023/01/28 13:54:22;;;;;;;16.00;11.55;;;;;;;;;;5136789;27;20220;-65
2023/01/28 13:56:56;;;;;;;14.43;12.07;;;;;;;;;;5130636;27;20272;-65
2023/01/28 13:59:35;;;;;;;17.45;13.48;;;;;;;;;;5116308;28;20194;-65
2023/01/28 14:02:17;;;;;;;15.45;11.50;;;;;;;;;;5115935;28;20191;-65
2023/01/28 14:04:52;;;;;;;18.38;12.15;;;;;;;;;;5107958;28;20196;-65
2023/01/28 14:07:32;;;;;;;16.92;11.75;;;;;;;;;;5095549;28;20194;-65
2023/01/28 14:10:06;;;;;;;17.58;11.88;;;;;;;;;;5095726;28;20562;-65
2023/01/28 14:12:48;;;;;;;19.38;11.60;;;;;;;;;;5095415;28;20274;-65
2023/01/28 14:15:33;;;;;;;15.32;11.45;;;;;;;;;;5092063;28;20646;-65
2023/01/28 14:18:00;;;;;;;16.65;10.70;;;;;;;;;;5095039;28;20195;-65
2023/01/28 14:20:31;;;;;;;15.25;10.80;;;;;;;;;;5095097;28;20199;-65
2023/01/28 14:23:00;;;;;;;15.23;11.25;;;;;;;;;;5095824;28;20188;-65
2023/01/28 14:25:30;;;;;;;17.65;11.45;;;;;;;;;;5094879;28;20194;-65
2023/01/28 14:27:57;;;;;;;18.35;10.98;;;;;;;;;;5095693;28;20197;-65
2023/01/28 14:30:27;;;;;;;20.13;11.38;;;;;;;;;;5094191;28;20234;-65
2023/01/28 14:32:54;;;;;;;13.82;10.73;;;;;;;;;;5095139;28;20192;-65
2023/01/28 14:35:25;;;;;;;13.93;10.23;;;;;;;;;;5094540;28;20228;-65
2023/01/28 14:37:54;;;;;;;15.45;10.40;;;;;;;;;;5094930;28;20191;-65
2023/01/28 14:40:22;;;;;;;14.07;10.88;;;;;;;;;;5094893;28;20206;-65
2023/01/28 14:42:50;;;;;;;13.60;10.95;;;;;;;;;;5094709;28;20198;-65
2023/01/28 14:45:26;;;;;;;15.48;11.30;;;;;;;;;;5094939;28;20191;-65
2023/01/28 14:47:59;;;;;;;18.35;12.13;;;;;;;;;;5094760;28;20549;-65
2023/01/28 14:50:44;;;;;;;15.98;10.90;;;;;;;;;;5094243;28;20219;-65
2023/01/28 14:53:24;;;;;;;18.05;12.57;;;;;;;;;;5094788;28;20211;-65
2023/01/28 14:55:56;;;;;;;18.20;12.45;;;;;;;;;;5094245;28;20314;-65
2023/01/28 14:58:25;;;;;;;13.43;10.05;;;;;;;;;;5113222;28;20222;-65
2023/01/28 15:00:54;;;;;;;19.15;12.20;;;;;;;;;;5114846;28;20288;-67
2023/01/28 15:03:21;;;;;;;17.33;12.90;;;;;;;;;;5114842;28;20196;-65
2023/01/28 15:05:48;;;;;;;18.35;12.75;;;;;;;;;;5114744;28;20200;-65
2023/01/28 15:08:24;;;;;;;14.70;12.20;;;;;;;;;;5114871;28;20221;-65
2023/01/28 15:10:52;;;;;;;19.92;11.32;;;;;;;;;;5113936;28;20229;-65
2023/01/28 15:13:24;;;;;;;17.27;13.63;;;;;;;;;;5114734;28;20199;-68
2023/01/28 15:15:56;;;;;;;20.50;12.80;;;;;;;;;;5114863;28;20195;-65
2023/01/28 15:18:27;;;;;;;20.67;12.80;;;;;;;;;;5114402;28;20240;-65